createdAt,value
2017-09-21T00:01:00.114Z,15.60
2017-09-21T00:03:27.609Z,15.60
2017-09-21T00:05:55.077Z,15.60
2017-09-21T00:08:22.590Z,15.50
2017-09-21T00:10:50.059Z,15.50
2017-09-21T00:13:17.594Z,15.50
2017-09-21T00:15:45.094Z,15.40
2017-09-21T00:18:12.571Z,15.40
2017-09-21T00:20:40.054Z,15.30
2017-09-21T00:23:07.555Z,15.30
2017-09-21T00:25:35.021Z,15.30
2017-09-21T00:28:03.253Z,15.30
2017-09-21T00:30:30.734Z,15.30
2017-09-21T00:32:58.217Z,15.30
2017-09-21T00:35:25.707Z,15.30
2017-09-21T00:37:53.190Z,15.30
2017-09-21T00:40:20.734Z,15.30
2017-09-21T00:42:48.225Z,15.30
2017-09-21T00:45:15.691Z,15.20
2017-09-21T00:47:43.167Z,15.20
2017-09-21T00:50:10.654Z,15.30
2017-09-21T00:52:38.137Z,15.20
2017-09-21T00:55:06.378Z,15.20
2017-09-21T00:57:33.850Z,15.10
2017-09-21T01:00:01.365Z,15.20
2017-09-21T01:02:29.612Z,15.10
2017-09-21T01:04:57.063Z,15.10
2017-09-21T01:07:24.542Z,15.10
2017-09-21T01:09:52.011Z,15.10
2017-09-21T01:12:19.511Z,15.10
2017-09-21T01:14:46.997Z,15.00
2017-09-21T01:17:14.459Z,15.00
2017-09-21T01:19:42.692Z,15.00
2017-09-21T01:22:10.186Z,15.00
2017-09-21T01:24:38.586Z,14.90
2017-09-21T01:27:06.045Z,14.90
2017-09-21T01:29:33.519Z,14.90
2017-09-21T01:32:01.777Z,14.80
2017-09-21T01:34:29.253Z,14.80
2017-09-21T01:36:56.758Z,14.80
2017-09-21T01:39:24.222Z,14.80
2017-09-21T01:41:51.689Z,14.70
2017-09-21T01:44:19.182Z,14.70
2017-09-21T01:46:46.638Z,14.60
2017-09-21T01:49:14.884Z,14.50
2017-09-21T01:51:42.374Z,14.50
2017-09-21T01:54:09.854Z,14.50
2017-09-21T01:56:38.098Z,14.30
2017-09-21T01:59:05.575Z,14.30
2017-09-21T02:01:34.773Z,14.30
2017-09-21T02:04:02.234Z,14.30
2017-09-21T02:06:29.690Z,14.30
2017-09-21T02:08:57.937Z,14.20
2017-09-21T02:11:25.427Z,14.20
2017-09-21T02:13:53.653Z,14.10
2017-09-21T02:16:21.118Z,14.10
2017-09-21T02:18:48.603Z,14.10
2017-09-21T02:21:16.057Z,14.10
2017-09-21T02:23:43.534Z,14.00
2017-09-21T02:26:10.999Z,14.00
2017-09-21T02:28:39.241Z,14.00
2017-09-21T02:31:06.699Z,13.90
2017-09-21T02:33:34.765Z,13.90
2017-09-21T02:36:02.230Z,13.90
2017-09-21T02:38:29.718Z,13.90
2017-09-21T02:40:57.170Z,13.90
2017-09-21T02:43:24.652Z,13.90
2017-09-21T02:45:52.113Z,13.90
2017-09-21T02:48:19.589Z,13.90
2017-09-21T02:50:47.081Z,13.80
2017-09-21T02:53:14.544Z,13.80
2017-09-21T02:55:41.995Z,13.80
2017-09-21T02:58:10.496Z,13.80
2017-09-21T03:00:38.364Z,13.80
2017-09-21T03:03:05.985Z,13.80
2017-09-21T03:05:33.630Z,13.70
2017-09-21T03:08:01.361Z,13.70
2017-09-21T03:10:29.586Z,13.60
2017-09-21T03:12:57.042Z,13.60
2017-09-21T03:15:24.534Z,13.60
2017-09-21T03:17:51.997Z,13.50
2017-09-21T03:20:19.470Z,13.50
2017-09-21T03:22:47.714Z,13.50
2017-09-21T03:25:15.186Z,13.50
2017-09-21T03:27:42.666Z,13.40
2017-09-21T03:30:10.952Z,13.30
2017-09-21T03:32:39.196Z,13.30
2017-09-21T03:35:06.666Z,13.30
2017-09-21T03:37:34.178Z,13.30
2017-09-21T03:40:01.675Z,13.30
2017-09-21T03:42:29.232Z,13.20
2017-09-21T03:44:56.751Z,13.20
2017-09-21T03:47:24.281Z,13.20
2017-09-21T03:49:51.934Z,13.10
2017-09-21T03:52:19.433Z,13.20
2017-09-21T03:54:46.961Z,13.10
2017-09-21T03:57:15.207Z,13.10
2017-09-21T03:59:42.674Z,13.10
2017-09-21T04:02:10.199Z,13.10
2017-09-21T04:04:37.654Z,13.10
2017-09-21T04:07:05.114Z,13.00
2017-09-21T04:09:32.610Z,13.00
2017-09-21T04:12:00.069Z,13.00
2017-09-21T04:14:27.535Z,13.00
2017-09-21T04:16:55.785Z,12.90
2017-09-21T04:19:23.242Z,12.90
2017-09-21T04:21:50.705Z,12.90
2017-09-21T04:24:18.198Z,12.90
2017-09-21T04:26:45.654Z,12.90
2017-09-21T04:29:13.111Z,12.80
2017-09-21T04:31:40.606Z,12.80
2017-09-21T04:34:08.065Z,12.80
2017-09-21T04:36:35.521Z,12.70
2017-09-21T04:39:03.013Z,12.70
2017-09-21T04:41:30.504Z,12.70
2017-09-21T04:43:57.941Z,12.70
2017-09-21T04:46:25.423Z,12.70
2017-09-21T04:48:53.693Z,12.70
2017-09-21T04:51:21.946Z,12.70
2017-09-21T04:53:49.404Z,12.70
2017-09-21T04:56:16.893Z,12.60
2017-09-21T04:58:44.378Z,12.60
2017-09-21T05:01:11.915Z,12.60
2017-09-21T05:03:40.371Z,12.60
2017-09-21T05:06:08.721Z,12.60
2017-09-21T05:08:36.264Z,12.60
2017-09-21T05:11:03.821Z,12.60
2017-09-21T05:13:31.332Z,12.60
2017-09-21T05:15:59.647Z,12.50
2017-09-21T05:18:27.118Z,12.50
2017-09-21T05:20:54.609Z,12.50
2017-09-21T05:23:22.078Z,12.50
2017-09-21T05:25:49.554Z,12.50
2017-09-21T05:28:17.083Z,12.40
2017-09-21T05:30:44.570Z,12.40
2017-09-21T05:33:12.078Z,12.40
2017-09-21T05:35:39.561Z,12.40
2017-09-21T05:38:07.470Z,12.40
2017-09-21T05:40:35.490Z,12.40
2017-09-21T05:43:05.596Z,12.40
2017-09-21T05:45:34.828Z,12.40
2017-09-21T05:48:02.320Z,12.40
2017-09-21T05:50:29.789Z,12.40
2017-09-21T05:52:57.318Z,12.40
2017-09-21T05:55:24.781Z,12.50
2017-09-21T05:57:53.040Z,12.50
2017-09-21T06:00:20.492Z,12.50
2017-09-21T06:02:47.956Z,12.50
2017-09-21T06:05:15.419Z,12.50
2017-09-21T06:07:42.926Z,12.50
2017-09-21T06:10:11.231Z,12.60
2017-09-21T06:12:39.121Z,12.60
2017-09-21T06:15:07.410Z,12.70
2017-09-21T06:17:34.883Z,12.60
2017-09-21T06:20:03.128Z,12.70
2017-09-21T06:22:30.589Z,12.70
2017-09-21T06:24:58.077Z,12.70
2017-09-21T06:27:25.559Z,12.70
2017-09-21T06:29:53.056Z,12.70
2017-09-21T06:32:20.513Z,12.80
2017-09-21T06:34:47.970Z,12.90
2017-09-21T06:37:15.459Z,12.90
2017-09-21T06:39:42.909Z,13.00
2017-09-21T06:42:10.381Z,13.00
2017-09-21T06:44:37.866Z,13.10
2017-09-21T06:47:05.340Z,13.10
2017-09-21T06:49:32.809Z,13.10
2017-09-21T06:52:00.314Z,13.10
2017-09-21T06:54:28.538Z,13.10
2017-09-21T06:56:55.990Z,13.10
2017-09-21T06:59:23.498Z,13.10
2017-09-21T07:01:51.014Z,13.10
2017-09-21T07:04:18.486Z,13.10
2017-09-21T07:06:45.962Z,13.10
2017-09-21T07:09:13.470Z,13.10
2017-09-21T07:11:40.954Z,13.10
2017-09-21T07:14:08.449Z,13.20
2017-09-21T07:16:35.921Z,13.20
2017-09-21T07:19:04.169Z,13.20
2017-09-21T07:21:31.653Z,13.20
2017-09-21T07:23:59.873Z,13.30
2017-09-21T07:26:27.355Z,13.30
2017-09-21T07:28:55.586Z,13.40
2017-09-21T07:31:23.065Z,13.40
2017-09-21T07:33:50.521Z,13.50
2017-09-21T07:36:18.003Z,13.60
2017-09-21T07:38:45.481Z,13.70
2017-09-21T07:41:12.975Z,13.70
2017-09-21T07:43:40.637Z,13.80
2017-09-21T07:46:08.110Z,13.90
2017-09-21T07:48:35.589Z,14.00
2017-09-21T07:51:03.052Z,14.00
2017-09-21T07:53:30.533Z,14.10
2017-09-21T07:55:57.995Z,14.20
2017-09-21T07:58:25.466Z,14.20
2017-09-21T08:00:53.726Z,14.30
2017-09-21T08:03:21.214Z,14.30
2017-09-21T08:05:48.678Z,14.40
2017-09-21T08:08:16.217Z,14.40
2017-09-21T08:10:44.474Z,14.60
2017-09-21T08:13:11.929Z,14.50
2017-09-21T08:15:39.391Z,14.60
2017-09-21T08:18:06.873Z,14.70
2017-09-21T08:20:35.125Z,14.80
2017-09-21T08:23:02.618Z,14.80
2017-09-21T08:25:30.133Z,14.90
2017-09-21T08:27:57.594Z,15.00
2017-09-21T08:30:25.091Z,15.00
2017-09-21T08:32:52.681Z,15.10
2017-09-21T08:35:20.137Z,15.10
2017-09-21T08:37:47.618Z,15.20
2017-09-21T08:40:15.073Z,15.30
2017-09-21T08:42:42.549Z,15.30
2017-09-21T08:45:10.010Z,15.40
2017-09-21T08:47:37.515Z,15.40
2017-09-21T08:50:04.969Z,15.50
2017-09-21T08:52:32.443Z,15.60
2017-09-21T08:54:59.937Z,15.70
2017-09-21T08:57:27.406Z,15.80
2017-09-21T08:59:54.882Z,15.90
2017-09-21T09:02:23.129Z,16.00
2017-09-21T09:04:50.627Z,16.00
2017-09-21T09:07:18.106Z,16.10
2017-09-21T09:09:45.606Z,16.20
2017-09-21T09:12:13.098Z,16.20
2017-09-21T09:14:41.353Z,16.40
2017-09-21T09:17:08.810Z,16.30
2017-09-21T09:19:36.297Z,16.40
2017-09-21T09:22:03.773Z,16.50
2017-09-21T09:24:31.235Z,16.50
2017-09-21T09:26:58.723Z,16.60
2017-09-21T09:29:26.224Z,16.60
2017-09-21T09:31:53.694Z,16.70
2017-09-21T09:34:21.166Z,16.70
2017-09-21T09:36:48.645Z,16.80
2017-09-21T09:39:16.127Z,16.90
2017-09-21T09:41:43.673Z,16.90
2017-09-21T09:44:11.150Z,17.00
2017-09-21T09:46:38.621Z,17.00
2017-09-21T09:49:06.158Z,17.10
2017-09-21T09:51:33.632Z,17.20
2017-09-21T09:54:01.101Z,17.20
2017-09-21T09:56:28.578Z,17.30
2017-09-21T09:58:56.148Z,17.40
2017-09-21T10:01:23.617Z,17.40
2017-09-21T10:03:51.118Z,17.50
2017-09-21T10:06:18.594Z,17.50
2017-09-21T10:08:46.041Z,17.60
2017-09-21T10:11:13.533Z,17.60
2017-09-21T10:13:41.013Z,17.70
2017-09-21T10:16:08.497Z,17.70
2017-09-21T10:18:35.952Z,17.80
2017-09-21T10:21:03.441Z,17.90
2017-09-21T10:23:31.671Z,18.00
2017-09-21T10:25:59.121Z,17.90
2017-09-21T10:28:26.662Z,18.00
2017-09-21T10:30:54.113Z,18.00
2017-09-21T10:33:21.598Z,18.00
2017-09-21T10:35:49.053Z,18.00
2017-09-21T10:38:16.550Z,18.10
2017-09-21T10:40:44.886Z,18.20
2017-09-21T10:43:12.381Z,18.20
2017-09-21T10:45:39.833Z,18.30
2017-09-21T10:48:07.286Z,18.40
2017-09-21T10:50:34.798Z,18.50
2017-09-21T10:53:02.287Z,18.60
2017-09-21T10:55:29.746Z,18.70
2017-09-21T10:57:57.221Z,18.80
2017-09-21T11:00:24.669Z,18.80
2017-09-21T11:02:52.160Z,18.90
2017-09-21T11:05:19.643Z,19.00
2017-09-21T11:07:47.162Z,19.00
2017-09-21T11:10:14.750Z,19.10
2017-09-21T11:12:42.246Z,19.20
2017-09-21T11:15:09.693Z,19.20
2017-09-21T11:17:37.161Z,19.30
2017-09-21T11:20:04.714Z,19.30
2017-09-21T11:22:32.160Z,19.40
2017-09-21T11:24:59.625Z,19.50
2017-09-21T11:27:27.113Z,19.50
2017-09-21T11:29:54.570Z,19.60
2017-09-21T11:32:22.033Z,19.60
2017-09-21T11:34:49.501Z,19.70
2017-09-21T11:37:16.962Z,19.90
2017-09-21T11:39:45.369Z,20.00
2017-09-21T11:42:13.629Z,20.10
2017-09-21T11:44:41.090Z,20.10
2017-09-21T11:47:08.542Z,20.10
2017-09-21T11:49:36.050Z,20.20
2017-09-21T11:52:03.513Z,20.20
2017-09-21T11:54:30.970Z,20.20
2017-09-21T11:56:58.451Z,20.30
2017-09-21T11:59:25.962Z,20.40
2017-09-21T12:01:53.428Z,20.50
2017-09-21T12:04:20.904Z,20.50
2017-09-21T12:06:48.372Z,20.60
2017-09-21T12:09:16.671Z,20.80
2017-09-21T12:11:44.905Z,20.90
2017-09-21T12:14:12.382Z,20.90
2017-09-21T12:16:39.883Z,20.90
2017-09-21T12:19:07.353Z,20.90
2017-09-21T12:21:34.806Z,21.00
2017-09-21T12:24:02.289Z,21.10
2017-09-21T12:26:30.502Z,21.30
2017-09-21T12:28:57.958Z,21.30
2017-09-21T12:31:25.442Z,21.30
2017-09-21T12:33:52.914Z,21.40
2017-09-21T12:36:20.365Z,21.60
2017-09-21T12:38:47.855Z,21.70
2017-09-21T12:41:17.027Z,21.90
2017-09-21T12:43:44.478Z,21.90
2017-09-21T12:46:11.952Z,22.00
2017-09-21T12:48:39.531Z,22.20
2017-09-21T12:51:07.931Z,22.40
2017-09-21T12:53:35.421Z,22.40
2017-09-21T12:56:02.893Z,22.50
2017-09-21T12:58:30.352Z,22.60
2017-09-21T13:00:57.806Z,22.70
2017-09-21T13:03:25.287Z,22.90
2017-09-21T13:05:53.521Z,23.10
2017-09-21T13:08:21.029Z,23.10
2017-09-21T13:10:49.266Z,23.40
2017-09-21T13:13:17.311Z,23.40
2017-09-21T13:15:44.774Z,23.50
2017-09-21T13:18:12.229Z,23.60
2017-09-21T13:20:39.706Z,23.70
2017-09-21T13:23:07.167Z,23.80
2017-09-21T13:25:34.649Z,24.20
2017-09-21T13:28:02.113Z,25.10
2017-09-21T13:30:29.565Z,26.40
2017-09-21T13:32:57.055Z,27.70
2017-09-21T13:35:24.547Z,29.00
2017-09-21T13:37:52.086Z,30.00
2017-09-21T13:40:19.543Z,30.70
2017-09-21T13:42:48.597Z,32.50
2017-09-21T13:45:16.053Z,32.40
2017-09-21T13:47:43.509Z,33.50
2017-09-21T13:50:10.999Z,34.40
2017-09-21T13:52:38.496Z,35.00
2017-09-21T13:55:05.950Z,35.20
2017-09-21T13:57:33.466Z,35.00
2017-09-21T14:00:00.925Z,34.80
2017-09-21T14:02:28.409Z,35.10
2017-09-21T14:04:55.859Z,35.30
2017-09-21T14:07:23.360Z,35.40
2017-09-21T14:09:51.684Z,35.70
2017-09-21T14:12:19.921Z,35.50
2017-09-21T14:14:47.390Z,35.50
2017-09-21T14:17:14.858Z,35.30
2017-09-21T14:19:42.320Z,34.80
2017-09-21T14:22:10.562Z,34.70
2017-09-21T14:24:38.022Z,34.70
2017-09-21T14:27:05.511Z,34.70
2017-09-21T14:29:33.761Z,34.20
2017-09-21T14:32:01.219Z,34.20
2017-09-21T14:34:28.670Z,33.70
2017-09-21T14:36:56.149Z,33.20
2017-09-21T14:39:23.603Z,32.90
2017-09-21T14:41:51.081Z,32.60
2017-09-21T14:44:18.935Z,32.50
2017-09-21T14:46:46.507Z,32.50
2017-09-21T14:49:14.721Z,32.10
2017-09-21T14:51:42.183Z,32.00
2017-09-21T14:54:09.649Z,32.20
2017-09-21T14:56:37.865Z,33.10
2017-09-21T14:59:06.113Z,34.00
2017-09-21T15:01:33.566Z,34.00
2017-09-21T15:04:01.055Z,34.70
2017-09-21T15:06:28.533Z,35.20
2017-09-21T15:08:56.813Z,35.50
2017-09-21T15:11:25.075Z,35.70
2017-09-21T15:13:53.293Z,35.80
2017-09-21T15:16:20.772Z,35.80
2017-09-21T15:18:48.306Z,36.10
2017-09-21T15:21:15.761Z,35.90
2017-09-21T15:23:43.224Z,35.60
2017-09-21T15:26:10.713Z,35.00
2017-09-21T15:28:38.166Z,34.50
2017-09-21T15:31:05.638Z,34.10
2017-09-21T15:33:33.212Z,34.10
2017-09-21T15:36:00.659Z,34.00
2017-09-21T15:38:28.136Z,33.90
2017-09-21T15:40:56.382Z,34.10
2017-09-21T15:43:23.853Z,34.10
2017-09-21T15:45:51.345Z,34.30
2017-09-21T15:48:20.494Z,34.50
2017-09-21T15:50:48.007Z,34.50
2017-09-21T15:53:15.502Z,34.80
2017-09-21T15:55:42.994Z,35.20
2017-09-21T15:58:10.486Z,35.40
2017-09-21T16:00:37.964Z,35.20
2017-09-21T16:03:05.477Z,34.90
2017-09-21T16:05:33.694Z,34.40
2017-09-21T16:08:01.192Z,34.40
2017-09-21T16:10:28.809Z,34.30
2017-09-21T16:12:56.259Z,34.20
2017-09-21T16:15:23.730Z,34.20
2017-09-21T16:17:51.185Z,34.30
2017-09-21T16:20:18.666Z,33.90
2017-09-21T16:22:46.882Z,32.20
2017-09-21T16:25:15.133Z,31.40
2017-09-21T16:27:42.609Z,31.40
2017-09-21T16:30:10.062Z,30.50
2017-09-21T16:32:37.553Z,29.80
2017-09-21T16:35:05.031Z,29.10
2017-09-21T16:37:32.522Z,28.50
2017-09-21T16:40:00.235Z,27.90
2017-09-21T16:42:27.838Z,27.50
2017-09-21T16:44:55.412Z,27.10
2017-09-21T16:47:22.879Z,26.60
2017-09-21T16:49:51.282Z,26.20
2017-09-21T16:52:19.497Z,25.60
2017-09-21T16:54:46.987Z,25.60
2017-09-21T16:57:14.460Z,25.40
2017-09-21T16:59:42.753Z,24.90
2017-09-21T17:02:10.997Z,24.60
2017-09-21T17:04:38.474Z,24.60
2017-09-21T17:07:06.797Z,24.10
2017-09-21T17:09:34.313Z,24.10
2017-09-21T17:12:01.808Z,23.90
2017-09-21T17:14:29.253Z,23.70
2017-09-21T17:16:56.710Z,23.50
2017-09-21T17:19:24.188Z,23.30
2017-09-21T17:21:52.481Z,23.00
2017-09-21T17:24:19.974Z,23.00
2017-09-21T17:26:47.430Z,22.80
2017-09-21T17:29:14.907Z,22.70
2017-09-21T17:31:43.166Z,22.30
2017-09-21T17:34:10.901Z,22.30
2017-09-21T17:36:38.804Z,22.10
2017-09-21T17:39:06.318Z,22.00
2017-09-21T17:41:34.460Z,21.80
2017-09-21T17:44:02.060Z,21.60
2017-09-21T17:46:29.549Z,21.50
2017-09-21T17:48:57.727Z,21.40
2017-09-21T17:51:25.252Z,21.30
2017-09-21T17:53:53.285Z,21.10
2017-09-21T17:56:21.126Z,21.00
2017-09-21T17:58:49.650Z,20.90
2017-09-21T18:01:17.112Z,20.80
2017-09-21T18:03:44.593Z,20.70
2017-09-21T18:06:12.081Z,20.60
2017-09-21T18:08:39.555Z,20.50
2017-09-21T18:11:07.775Z,20.30
2017-09-21T18:13:35.270Z,20.30
2017-09-21T18:16:02.726Z,20.20
2017-09-21T18:18:30.268Z,20.10
2017-09-21T18:20:58.244Z,20.10
2017-09-21T18:23:26.871Z,20.00
2017-09-21T18:25:54.358Z,19.90
2017-09-21T18:28:21.809Z,19.80
2017-09-21T18:30:49.257Z,19.70
2017-09-21T18:33:16.729Z,19.70
2017-09-21T18:35:44.273Z,19.60
2017-09-21T18:38:11.793Z,19.60
2017-09-21T18:40:39.311Z,19.50
2017-09-21T18:43:06.847Z,19.50
2017-09-21T18:45:34.414Z,19.40
2017-09-21T18:48:01.930Z,19.40
2017-09-21T18:50:29.450Z,19.30
2017-09-21T18:52:56.900Z,19.30
2017-09-21T18:55:24.357Z,19.20
2017-09-21T18:57:51.832Z,19.20
2017-09-21T19:00:19.285Z,19.10
2017-09-21T19:02:46.768Z,19.10
2017-09-21T19:05:14.250Z,19.00
2017-09-21T19:07:41.747Z,18.90
2017-09-21T19:10:09.277Z,18.80
2017-09-21T19:12:37.522Z,18.70
2017-09-21T19:15:05.060Z,18.70
2017-09-21T19:17:33.502Z,18.70
2017-09-21T19:20:02.406Z,18.60
2017-09-21T19:22:30.347Z,18.60
2017-09-21T19:24:57.857Z,18.60
2017-09-21T19:27:25.910Z,18.50
2017-09-21T19:29:54.555Z,18.40
2017-09-21T19:32:22.389Z,18.40
2017-09-21T19:34:50.228Z,18.30
2017-09-21T19:37:17.856Z,18.30
2017-09-21T19:39:46.122Z,18.30
2017-09-21T19:42:13.977Z,18.20
2017-09-21T19:44:42.867Z,18.20
2017-09-21T19:47:11.169Z,18.20
2017-09-21T19:49:39.204Z,18.20
2017-09-21T19:52:07.827Z,18.20
2017-09-21T19:54:35.622Z,18.10
2017-09-21T19:57:03.234Z,18.10
2017-09-21T19:59:31.381Z,18.10
2017-09-21T20:02:00.004Z,18.10
2017-09-21T20:04:27.997Z,18.10
2017-09-21T20:06:56.402Z,18.10
2017-09-21T20:09:24.837Z,18.10
2017-09-21T20:11:52.484Z,18.00
2017-09-21T20:14:20.427Z,18.00
2017-09-21T20:16:48.853Z,18.00
2017-09-21T20:19:17.110Z,17.90
2017-09-21T20:21:44.596Z,17.80
2017-09-21T20:24:12.819Z,17.80
2017-09-21T20:26:40.302Z,17.80
2017-09-21T20:29:07.749Z,17.70
2017-09-21T20:31:35.217Z,17.70
2017-09-21T20:34:02.713Z,17.60
2017-09-21T20:36:30.187Z,17.60
2017-09-21T20:38:57.711Z,17.50
2017-09-21T20:41:25.213Z,17.50
2017-09-21T20:43:52.656Z,17.50
2017-09-21T20:46:20.126Z,17.40
2017-09-21T20:48:47.654Z,17.40
2017-09-21T20:51:15.125Z,17.30
2017-09-21T20:53:42.604Z,17.30
2017-09-21T20:56:10.111Z,17.30
2017-09-21T20:58:37.562Z,17.20
2017-09-21T21:01:05.021Z,17.20
2017-09-21T21:03:32.501Z,17.20
2017-09-21T21:06:00.047Z,17.10
2017-09-21T21:08:27.651Z,17.10
2017-09-21T21:10:56.498Z,17.00
2017-09-21T21:13:23.949Z,17.00
2017-09-21T21:15:51.418Z,16.90
2017-09-21T21:18:18.899Z,16.90
2017-09-21T21:20:47.117Z,16.90
2017-09-21T21:23:14.571Z,16.90
2017-09-21T21:25:42.162Z,16.80
2017-09-21T21:28:09.650Z,16.80
2017-09-21T21:30:37.110Z,16.70
2017-09-21T21:33:04.609Z,16.70
2017-09-21T21:35:32.096Z,16.70
2017-09-21T21:38:00.346Z,16.60
2017-09-21T21:40:27.914Z,16.60
2017-09-21T21:42:56.920Z,16.60
2017-09-21T21:45:24.388Z,16.60
2017-09-21T21:47:51.854Z,16.60
2017-09-21T21:50:19.323Z,16.50
2017-09-21T21:52:46.811Z,16.50
2017-09-21T21:55:14.317Z,16.50
2017-09-21T21:57:41.804Z,16.50
2017-09-21T22:00:09.270Z,16.40
2017-09-21T22:02:36.734Z,16.30
2017-09-21T22:05:04.991Z,16.20
2017-09-21T22:07:32.457Z,16.20
2017-09-21T22:10:00.035Z,16.10
2017-09-21T22:12:27.518Z,16.10
2017-09-21T22:14:55.005Z,16.10
2017-09-21T22:17:22.481Z,16.00
2017-09-21T22:19:49.954Z,16.00
2017-09-21T22:22:18.205Z,16.00
2017-09-21T22:24:45.701Z,16.00
2017-09-21T22:27:13.170Z,16.00
2017-09-21T22:29:40.622Z,16.10
2017-09-21T22:32:08.104Z,16.10
2017-09-21T22:34:35.565Z,16.10
2017-09-21T22:37:03.055Z,16.10
2017-09-21T22:39:30.580Z,16.10
2017-09-21T22:41:58.075Z,16.10
2017-09-21T22:44:25.558Z,16.00
2017-09-21T22:46:53.817Z,16.00
2017-09-21T22:49:21.289Z,16.00
2017-09-21T22:51:48.750Z,15.90
2017-09-21T22:54:16.268Z,15.90
2017-09-21T22:56:43.761Z,15.80
2017-09-21T22:59:11.991Z,15.70
2017-09-21T23:01:39.442Z,15.70
2017-09-21T23:04:06.942Z,15.60
2017-09-21T23:06:34.455Z,15.60
2017-09-21T23:09:01.947Z,15.60
2017-09-21T23:11:29.457Z,15.50
2017-09-21T23:13:57.388Z,15.50
2017-09-21T23:16:24.857Z,15.60
2017-09-21T23:18:53.114Z,15.60
2017-09-21T23:21:20.567Z,15.60
2017-09-21T23:23:48.058Z,15.60
2017-09-21T23:26:16.326Z,15.60
2017-09-21T23:28:44.549Z,15.60
2017-09-21T23:31:12.055Z,15.60
2017-09-21T23:33:39.509Z,15.60
2017-09-21T23:36:07.022Z,15.60
2017-09-21T23:38:34.454Z,15.60
2017-09-21T23:41:02.713Z,15.60
2017-09-21T23:43:30.974Z,15.60
2017-09-21T23:45:58.434Z,15.50
2017-09-21T23:48:25.954Z,15.50
2017-09-21T23:50:53.422Z,15.50
2017-09-21T23:53:20.958Z,15.50
2017-09-21T23:55:48.429Z,15.50
2017-09-21T23:58:15.921Z,15.40
